sensor_id;sensor_type;location;lat;lon;timestamp;P1;durP1;ratioP1;P2;durP2;ratioP2
50012;SDS011;35901;48.694;9.476;2022-08-25T00:01:42;6.93;;;6.37;;
50012;SDS011;35901;48.694;9.476;2022-08-25T00:04:11;6.60;;;6.00;;
50012;SDS011;35901;48.694;9.476;2022-08-25T00:06:39;6.77;;;6.17;;
50012;SDS011;35901;48.694;9.476;2022-08-25T00:09:06;6.60;;;6.00;;
50012;SDS011;35901;48.694;9.476;2022-08-25T00:11:33;6.83;;;6.33;;
50012;SDS011;35901;48.694;9.476;2022-08-25T00:14:01;7.17;;;6.40;;
50012;SDS011;35901;48.694;9.476;2022-08-25T00:16:29;7.03;;;6.53;;
50012;SDS011;35901;48.694;9.476;2022-08-25T00:18:57;7.17;;;6.57;;
50012;SDS011;35901;48.694;9.476;2022-08-25T00:21:25;6.93;;;6.33;;
50012;SDS011;35901;48.694;9.476;2022-08-25T00:23:52;7.47;;;6.77;;
50012;SDS011;35901;48.694;9.476;2022-08-25T00:26:18;7.70;;;7.00;;
50012;SDS011;35901;48.694;9.476;2022-08-25T00:28:45;7.43;;;6.80;;
50012;SDS011;35901;48.694;9.476;2022-08-25T00:31:11;7.50;;;6.33;;
50012;SDS011;35901;48.694;9.476;2022-08-25T00:33:39;6.90;;;6.40;;
50012;SDS011;35901;48.694;9.476;2022-08-25T00:36:05;7.70;;;7.10;;
50012;SDS011;35901;48.694;9.476;2022-08-25T00:38:31;7.87;;;7.17;;
50012;SDS011;35901;48.694;9.476;2022-08-25T00:40:57;8.30;;;7.60;;
50012;SDS011;35901;48.694;9.476;2022-08-25T00:46:27;8.00;;;7.30;;
50012;SDS011;35901;48.694;9.476;2022-08-25T00:48:56;7.10;;;6.50;;
50012;SDS011;35901;48.694;9.476;2022-08-25T00:51:36;7.33;;;6.73;;
50012;SDS011;35901;48.694;9.476;2022-08-25T00:54:07;7.40;;;6.80;;
50012;SDS011;35901;48.694;9.476;2022-08-25T00:56:47;7.50;;;6.80;;
50012;SDS011;35901;48.694;9.476;2022-08-25T00:59:13;8.10;;;7.43;;
50012;SDS011;35901;48.694;9.476;2022-08-25T01:01:41;8.43;;;7.60;;
50012;SDS011;35901;48.694;9.476;2022-08-25T01:04:07;8.17;;;7.37;;
50012;SDS011;35901;48.694;9.476;2022-08-25T01:06:35;8.40;;;7.60;;
50012;SDS011;35901;48.694;9.476;2022-08-25T01:09:03;8.27;;;7.57;;
50012;SDS011;35901;48.694;9.476;2022-08-25T01:11:30;6.87;;;6.27;;
50012;SDS011;35901;48.694;9.476;2022-08-25T01:13:56;7.30;;;6.63;;
50012;SDS011;35901;48.694;9.476;2022-08-25T01:16:27;8.37;;;7.17;;
50012;SDS011;35901;48.694;9.476;2022-08-25T01:18:54;6.93;;;6.43;;
50012;SDS011;35901;48.694;9.476;2022-08-25T01:21:22;7.73;;;7.03;;
50012;SDS011;35901;48.694;9.476;2022-08-25T01:23:50;7.87;;;7.17;;
50012;SDS011;35901;48.694;9.476;2022-08-25T01:26:24;7.33;;;6.63;;
50012;SDS011;35901;48.694;9.476;2022-08-25T01:28:55;7.73;;;6.93;;
50012;SDS011;35901;48.694;9.476;2022-08-25T01:31:40;6.73;;;6.13;;
50012;SDS011;35901;48.694;9.476;2022-08-25T01:34:07;6.80;;;6.20;;
50012;SDS011;35901;48.694;9.476;2022-08-25T01:36:34;6.60;;;6.00;;
50012;SDS011;35901;48.694;9.476;2022-08-25T01:39:00;7.10;;;6.47;;
50012;SDS011;35901;48.694;9.476;2022-08-25T01:41:34;6.50;;;5.87;;
50012;SDS011;35901;48.694;9.476;2022-08-25T01:44:08;7.57;;;6.87;;
50012;SDS011;35901;48.694;9.476;2022-08-25T01:46:34;6.93;;;6.33;;
50012;SDS011;35901;48.694;9.476;2022-08-25T01:49:00;7.40;;;6.70;;
50012;SDS011;35901;48.694;9.476;2022-08-25T01:51:28;7.20;;;6.60;;
50012;SDS011;35901;48.694;9.476;2022-08-25T01:53:57;7.13;;;6.53;;
50012;SDS011;35901;48.694;9.476;2022-08-25T01:56:23;6.70;;;6.10;;
50012;SDS011;35901;48.694;9.476;2022-08-25T01:58:49;7.47;;;6.77;;
50012;SDS011;35901;48.694;9.476;2022-08-25T02:01:16;7.67;;;6.97;;
50012;SDS011;35901;48.694;9.476;2022-08-25T02:03:45;6.30;;;5.80;;
50012;SDS011;35901;48.694;9.476;2022-08-25T02:06:13;7.40;;;6.70;;
50012;SDS011;35901;48.694;9.476;2022-08-25T02:08:41;7.70;;;6.90;;
50012;SDS011;35901;48.694;9.476;2022-08-25T02:11:11;7.53;;;6.77;;
50012;SDS011;35901;48.694;9.476;2022-08-25T02:13:38;7.17;;;6.53;;
50012;SDS011;35901;48.694;9.476;2022-08-25T02:16:05;7.43;;;6.33;;
50012;SDS011;35901;48.694;9.476;2022-08-25T02:18:31;7.30;;;6.70;;
50012;SDS011;35901;48.694;9.476;2022-08-25T02:20:57;7.43;;;6.73;;
50012;SDS011;35901;48.694;9.476;2022-08-25T02:23:22;7.93;;;7.13;;
50012;SDS011;35901;48.694;9.476;2022-08-25T02:25:48;8.23;;;7.47;;
50012;SDS011;35901;48.694;9.476;2022-08-25T02:28:14;7.97;;;7.27;;
50012;SDS011;35901;48.694;9.476;2022-08-25T02:30:40;7.70;;;7.00;;
50012;SDS011;35901;48.694;9.476;2022-08-25T02:33:06;8.07;;;7.27;;
50012;SDS011;35901;48.694;9.476;2022-08-25T02:35:32;7.77;;;7.03;;
50012;SDS011;35901;48.694;9.476;2022-08-25T02:37:59;8.33;;;7.63;;
50012;SDS011;35901;48.694;9.476;2022-08-25T02:40:24;8.00;;;7.27;;
50012;SDS011;35901;48.694;9.476;2022-08-25T02:42:51;7.13;;;6.50;;
50012;SDS011;35901;48.694;9.476;2022-08-25T02:45:19;8.37;;;7.57;;
50012;SDS011;35901;48.694;9.476;2022-08-25T02:47:45;7.97;;;7.13;;
50012;SDS011;35901;48.694;9.476;2022-08-25T02:50:12;8.00;;;7.03;;
50012;SDS011;35901;48.694;9.476;2022-08-25T02:52:37;8.13;;;7.37;;
50012;SDS011;35901;48.694;9.476;2022-08-25T02:55:05;7.87;;;7.17;;
50012;SDS011;35901;48.694;9.476;2022-08-25T02:57:33;8.67;;;7.87;;
50012;SDS011;35901;48.694;9.476;2022-08-25T03:00:00;8.77;;;7.97;;
50012;SDS011;35901;48.694;9.476;2022-08-25T03:02:26;8.83;;;7.97;;
50012;SDS011;35901;48.694;9.476;2022-08-25T03:04:52;8.90;;;8.10;;
50012;SDS011;35901;48.694;9.476;2022-08-25T03:07:18;9.37;;;8.47;;
50012;SDS011;35901;48.694;9.476;2022-08-25T03:09:45;9.23;;;8.33;;
50012;SDS011;35901;48.694;9.476;2022-08-25T03:12:11;9.53;;;8.63;;
50012;SDS011;35901;48.694;9.476;2022-08-25T03:14:37;11.03;;;9.50;;
50012;SDS011;35901;48.694;9.476;2022-08-25T03:17:04;10.20;;;9.20;;
50012;SDS011;35901;48.694;9.476;2022-08-25T03:19:30;9.90;;;8.90;;
50012;SDS011;35901;48.694;9.476;2022-08-25T03:21:56;10.23;;;9.20;;
50012;SDS011;35901;48.694;9.476;2022-08-25T03:24:23;8.37;;;7.27;;
50012;SDS011;35901;48.694;9.476;2022-08-25T03:26:49;10.27;;;9.27;;
50012;SDS011;35901;48.694;9.476;2022-08-25T03:29:25;9.70;;;8.43;;
50012;SDS011;35901;48.694;9.476;2022-08-25T03:31:53;8.27;;;7.47;;
50012;SDS011;35901;48.694;9.476;2022-08-25T03:34:20;7.83;;;7.13;;
50012;SDS011;35901;48.694;9.476;2022-08-25T03:36:49;8.80;;;7.90;;
50012;SDS011;35901;48.694;9.476;2022-08-25T03:39:17;8.73;;;7.33;;
50012;SDS011;35901;48.694;9.476;2022-08-25T03:41:44;9.33;;;8.40;;
50012;SDS011;35901;48.694;9.476;2022-08-25T03:44:11;11.27;;;10.10;;
50012;SDS011;35901;48.694;9.476;2022-08-25T03:46:39;11.33;;;10.20;;
50012;SDS011;35901;48.694;9.476;2022-08-25T03:49:06;12.67;;;10.70;;
50012;SDS011;35901;48.694;9.476;2022-08-25T03:51:35;12.03;;;10.60;;
50012;SDS011;35901;48.694;9.476;2022-08-25T03:54:05;11.87;;;10.67;;
50012;SDS011;35901;48.694;9.476;2022-08-25T03:56:31;10.83;;;9.77;;
50012;SDS011;35901;48.694;9.476;2022-08-25T03:58:57;11.80;;;10.33;;
50012;SDS011;35901;48.694;9.476;2022-08-25T04:01:23;10.63;;;9.53;;
50012;SDS011;35901;48.694;9.476;2022-08-25T04:03:49;11.83;;;10.70;;
50012;SDS011;35901;48.694;9.476;2022-08-25T04:06:15;11.90;;;10.70;;
50012;SDS011;35901;48.694;9.476;2022-08-25T04:08:42;10.63;;;9.60;;
50012;SDS011;35901;48.694;9.476;2022-08-25T04:11:09;10.40;;;9.33;;
50012;SDS011;35901;48.694;9.476;2022-08-25T04:13:37;11.60;;;10.40;;
50012;SDS011;35901;48.694;9.476;2022-08-25T04:16:08;11.23;;;10.20;;
50012;SDS011;35901;48.694;9.476;2022-08-25T04:18:42;13.23;;;11.63;;
50012;SDS011;35901;48.694;9.476;2022-08-25T04:21:09;14.57;;;12.20;;
50012;SDS011;35901;48.694;9.476;2022-08-25T04:23:37;13.87;;;11.90;;
50012;SDS011;35901;48.694;9.476;2022-08-25T04:26:18;11.63;;;10.40;;
50012;SDS011;35901;48.694;9.476;2022-08-25T04:28:46;12.13;;;10.87;;
50012;SDS011;35901;48.694;9.476;2022-08-25T04:31:13;13.13;;;10.93;;
50012;SDS011;35901;48.694;9.476;2022-08-25T04:33:40;15.60;;;12.23;;
50012;SDS011;35901;48.694;9.476;2022-08-25T04:36:06;14.50;;;12.13;;
50012;SDS011;35901;48.694;9.476;2022-08-25T04:38:36;13.23;;;11.77;;
50012;SDS011;35901;48.694;9.476;2022-08-25T04:41:03;13.70;;;11.83;;
50012;SDS011;35901;48.694;9.476;2022-08-25T04:43:31;15.13;;;12.83;;
50012;SDS011;35901;48.694;9.476;2022-08-25T04:45:58;15.90;;;13.73;;
50012;SDS011;35901;48.694;9.476;2022-08-25T04:48:24;16.17;;;14.50;;
50012;SDS011;35901;48.694;9.476;2022-08-25T04:50:50;16.60;;;13.73;;
50012;SDS011;35901;48.694;9.476;2022-08-25T04:53:16;15.47;;;13.77;;
50012;SDS011;35901;48.694;9.476;2022-08-25T04:55:43;17.90;;;13.67;;
50012;SDS011;35901;48.694;9.476;2022-08-25T04:58:11;15.83;;;11.10;;
50012;SDS011;35901;48.694;9.476;2022-08-25T05:00:38;10.50;;;9.57;;
50012;SDS011;35901;48.694;9.476;2022-08-25T05:03:04;9.97;;;9.07;;
50012;SDS011;35901;48.694;9.476;2022-08-25T05:05:31;8.83;;;7.93;;
50012;SDS011;35901;48.694;9.476;2022-08-25T05:07:59;7.90;;;7.23;;
50012;SDS011;35901;48.694;9.476;2022-08-25T05:10:25;6.83;;;6.23;;
50012;SDS011;35901;48.694;9.476;2022-08-25T05:12:51;6.57;;;5.97;;
50012;SDS011;35901;48.694;9.476;2022-08-25T05:15:17;7.70;;;6.13;;
50012;SDS011;35901;48.694;9.476;2022-08-25T05:18:02;6.40;;;5.90;;
50012;SDS011;35901;48.694;9.476;2022-08-25T05:20:27;6.00;;;5.50;;
50012;SDS011;35901;48.694;9.476;2022-08-25T05:22:55;5.60;;;5.10;;
50012;SDS011;35901;48.694;9.476;2022-08-25T05:25:22;5.90;;;5.40;;
50012;SDS011;35901;48.694;9.476;2022-08-25T05:27:48;5.33;;;4.90;;
50012;SDS011;35901;48.694;9.476;2022-08-25T05:30:14;5.57;;;5.07;;
50012;SDS011;35901;48.694;9.476;2022-08-25T05:32:39;5.30;;;4.80;;
50012;SDS011;35901;48.694;9.476;2022-08-25T05:35:05;5.17;;;4.77;;
50012;SDS011;35901;48.694;9.476;2022-08-25T05:37:32;5.20;;;4.80;;
50012;SDS011;35901;48.694;9.476;2022-08-25T05:39:58;5.77;;;5.20;;
50012;SDS011;35901;48.694;9.476;2022-08-25T05:42:24;6.07;;;5.00;;
50012;SDS011;35901;48.694;9.476;2022-08-25T05:44:52;4.30;;;4.00;;
50012;SDS011;35901;48.694;9.476;2022-08-25T05:47:19;4.60;;;4.20;;
50012;SDS011;35901;48.694;9.476;2022-08-25T05:49:45;4.47;;;4.17;;
50012;SDS011;35901;48.694;9.476;2022-08-25T05:52:11;4.83;;;4.40;;
50012;SDS011;35901;48.694;9.476;2022-08-25T05:54:37;4.67;;;4.27;;
50012;SDS011;35901;48.694;9.476;2022-08-25T05:57:04;7.07;;;5.07;;
50012;SDS011;35901;48.694;9.476;2022-08-25T05:59:30;4.50;;;4.10;;
50012;SDS011;35901;48.694;9.476;2022-08-25T06:01:57;4.47;;;3.97;;
50012;SDS011;35901;48.694;9.476;2022-08-25T06:04:41;4.20;;;3.90;;
50012;SDS011;35901;48.694;9.476;2022-08-25T06:07:07;4.90;;;4.40;;
50012;SDS011;35901;48.694;9.476;2022-08-25T06:09:33;5.13;;;4.73;;
50012;SDS011;35901;48.694;9.476;2022-08-25T06:11:58;5.53;;;4.90;;
50012;SDS011;35901;48.694;9.476;2022-08-25T06:14:24;5.07;;;4.63;;
50012;SDS011;35901;48.694;9.476;2022-08-25T06:16:50;5.60;;;5.10;;
50012;SDS011;35901;48.694;9.476;2022-08-25T06:19:16;4.70;;;4.30;;
50012;SDS011;35901;48.694;9.476;2022-08-25T06:21:42;5.40;;;5.00;;
50012;SDS011;35901;48.694;9.476;2022-08-25T06:24:08;8.30;;;5.80;;
50012;SDS011;35901;48.694;9.476;2022-08-25T06:26:35;6.97;;;5.97;;
50012;SDS011;35901;48.694;9.476;2022-08-25T06:29:01;8.07;;;5.70;;
50012;SDS011;35901;48.694;9.476;2022-08-25T06:31:27;7.00;;;5.53;;
50012;SDS011;35901;48.694;9.476;2022-08-25T06:33:52;8.63;;;5.73;;
50012;SDS011;35901;48.694;9.476;2022-08-25T06:36:18;7.23;;;5.63;;
50012;SDS011;35901;48.694;9.476;2022-08-25T06:38:45;6.50;;;5.90;;
50012;SDS011;35901;48.694;9.476;2022-08-25T06:41:11;6.10;;;5.60;;
50012;SDS011;35901;48.694;9.476;2022-08-25T06:43:38;6.27;;;5.43;;
50012;SDS011;35901;48.694;9.476;2022-08-25T06:48:38;5.97;;;5.37;;
50012;SDS011;35901;48.694;9.476;2022-08-25T06:51:05;5.50;;;5.10;;
50012;SDS011;35901;48.694;9.476;2022-08-25T06:53:36;6.83;;;5.03;;
50012;SDS011;35901;48.694;9.476;2022-08-25T06:56:02;5.77;;;5.13;;
50012;SDS011;35901;48.694;9.476;2022-08-25T06:58:28;6.13;;;5.60;;
50012;SDS011;35901;48.694;9.476;2022-08-25T07:00:54;5.83;;;5.30;;
50012;SDS011;35901;48.694;9.476;2022-08-25T07:03:19;6.20;;;5.60;;
50012;SDS011;35901;48.694;9.476;2022-08-25T07:05:52;5.23;;;4.73;;
50012;SDS011;35901;48.694;9.476;2022-08-25T07:08:20;5.90;;;5.40;;
50012;SDS011;35901;48.694;9.476;2022-08-25T07:10:47;5.70;;;5.20;;
50012;SDS011;35901;48.694;9.476;2022-08-25T07:13:13;5.63;;;5.17;;
50012;SDS011;35901;48.694;9.476;2022-08-25T07:15:40;6.20;;;5.70;;
50012;SDS011;35901;48.694;9.476;2022-08-25T07:18:06;6.07;;;5.57;;
50012;SDS011;35901;48.694;9.476;2022-08-25T07:20:33;6.43;;;5.83;;
50012;SDS011;35901;48.694;9.476;2022-08-25T07:22:59;6.87;;;6.17;;
50012;SDS011;35901;48.694;9.476;2022-08-25T07:25:25;6.57;;;5.60;;
50012;SDS011;35901;48.694;9.476;2022-08-25T07:27:51;7.97;;;6.20;;
50012;SDS011;35901;48.694;9.476;2022-08-25T07:30:17;7.07;;;6.47;;
50012;SDS011;35901;48.694;9.476;2022-08-25T07:32:43;6.40;;;5.80;;
50012;SDS011;35901;48.694;9.476;2022-08-25T07:35:09;6.57;;;5.97;;
50012;SDS011;35901;48.694;9.476;2022-08-25T07:37:47;6.20;;;5.70;;
50012;SDS011;35901;48.694;9.476;2022-08-25T07:40:17;6.13;;;5.40;;
50012;SDS011;35901;48.694;9.476;2022-08-25T07:42:49;6.33;;;5.83;;
50012;SDS011;35901;48.694;9.476;2022-08-25T07:45:17;6.20;;;5.70;;
50012;SDS011;35901;48.694;9.476;2022-08-25T07:47:45;6.93;;;6.00;;
50012;SDS011;35901;48.694;9.476;2022-08-25T07:50:11;7.30;;;5.60;;
50012;SDS011;35901;48.694;9.476;2022-08-25T07:52:38;6.33;;;5.73;;
50012;SDS011;35901;48.694;9.476;2022-08-25T07:55:05;5.63;;;5.13;;
50012;SDS011;35901;48.694;9.476;2022-08-25T07:57:32;6.73;;;5.60;;
50012;SDS011;35901;48.694;9.476;2022-08-25T07:59:58;5.97;;;5.57;;
50012;SDS011;35901;48.694;9.476;2022-08-25T08:02:24;5.40;;;5.00;;
50012;SDS011;35901;48.694;9.476;2022-08-25T08:04:50;6.07;;;5.47;;
50012;SDS011;35901;48.694;9.476;2022-08-25T08:07:18;5.60;;;5.10;;
50012;SDS011;35901;48.694;9.476;2022-08-25T08:09:46;6.67;;;6.17;;
50012;SDS011;35901;48.694;9.476;2022-08-25T08:12:12;6.17;;;5.50;;
50012;SDS011;35901;48.694;9.476;2022-08-25T08:14:38;6.03;;;5.40;;
50012;SDS011;35901;48.694;9.476;2022-08-25T08:17:05;5.90;;;5.40;;
50012;SDS011;35901;48.694;9.476;2022-08-25T08:19:32;5.87;;;5.40;;
50012;SDS011;35901;48.694;9.476;2022-08-25T08:21:58;6.23;;;5.73;;
50012;SDS011;35901;48.694;9.476;2022-08-25T08:24:24;6.03;;;5.53;;
50012;SDS011;35901;48.694;9.476;2022-08-25T08:26:50;6.43;;;5.87;;
50012;SDS011;35901;48.694;9.476;2022-08-25T08:29:16;6.77;;;5.90;;
50012;SDS011;35901;48.694;9.476;2022-08-25T08:31:44;26.73;;;8.20;;
50012;SDS011;35901;48.694;9.476;2022-08-25T08:34:09;8.20;;;5.87;;
50012;SDS011;35901;48.694;9.476;2022-08-25T08:36:36;5.60;;;5.10;;
50012;SDS011;35901;48.694;9.476;2022-08-25T08:39:02;5.70;;;5.20;;
50012;SDS011;35901;48.694;9.476;2022-08-25T08:41:53;5.67;;;5.17;;
50012;SDS011;35901;48.694;9.476;2022-08-25T08:52:49;4.83;;;4.37;;
50012;SDS011;35901;48.694;9.476;2022-08-25T08:55:21;5.17;;;4.77;;
50012;SDS011;35901;48.694;9.476;2022-08-25T08:57:54;5.20;;;4.80;;
50012;SDS011;35901;48.694;9.476;2022-08-25T09:00:22;5.93;;;5.20;;
50012;SDS011;35901;48.694;9.476;2022-08-25T09:02:56;5.27;;;4.87;;
50012;SDS011;35901;48.694;9.476;2022-08-25T09:05:28;6.07;;;4.73;;
50012;SDS011;35901;48.694;9.476;2022-08-25T09:08:00;5.53;;;5.03;;
50012;SDS011;35901;48.694;9.476;2022-08-25T09:10:49;4.97;;;4.50;;
50012;SDS011;35901;48.694;9.476;2022-08-25T09:13:33;5.60;;;5.20;;
50012;SDS011;35901;48.694;9.476;2022-08-25T09:19:40;4.77;;;4.33;;
50012;SDS011;35901;48.694;9.476;2022-08-25T09:30:26;5.43;;;4.93;;
50012;SDS011;35901;48.694;9.476;2022-08-25T09:33:09;5.23;;;4.67;;
50012;SDS011;35901;48.694;9.476;2022-08-25T09:35:39;5.27;;;4.63;;
50012;SDS011;35901;48.694;9.476;2022-08-25T09:38:08;4.90;;;4.40;;
50012;SDS011;35901;48.694;9.476;2022-08-25T09:40:36;5.30;;;4.80;;
50012;SDS011;35901;48.694;9.476;2022-08-25T09:43:08;5.27;;;4.80;;
50012;SDS011;35901;48.694;9.476;2022-08-25T09:45:46;5.37;;;4.83;;
50012;SDS011;35901;48.694;9.476;2022-08-25T09:53:42;5.20;;;4.80;;
50012;SDS011;35901;48.694;9.476;2022-08-25T09:56:19;4.60;;;4.20;;
50012;SDS011;35901;48.694;9.476;2022-08-25T09:58:47;4.70;;;4.37;;
50012;SDS011;35901;48.694;9.476;2022-08-25T10:01:21;5.50;;;4.60;;
50012;SDS011;35901;48.694;9.476;2022-08-25T10:03:55;4.80;;;4.30;;
50012;SDS011;35901;48.694;9.476;2022-08-25T10:06:29;4.70;;;4.37;;
50012;SDS011;35901;48.694;9.476;2022-08-25T10:09:03;4.83;;;4.53;;
50012;SDS011;35901;48.694;9.476;2022-08-25T10:14:04;4.17;;;3.87;;
50012;SDS011;35901;48.694;9.476;2022-08-25T10:16:46;4.70;;;4.30;;
50012;SDS011;35901;48.694;9.476;2022-08-25T10:19:26;4.40;;;4.00;;
50012;SDS011;35901;48.694;9.476;2022-08-25T10:24:35;4.03;;;3.70;;
50012;SDS011;35901;48.694;9.476;2022-08-25T10:27:13;4.40;;;3.87;;
50012;SDS011;35901;48.694;9.476;2022-08-25T10:32:36;4.60;;;4.30;;
50012;SDS011;35901;48.694;9.476;2022-08-25T10:35:12;4.43;;;4.13;;
50012;SDS011;35901;48.694;9.476;2022-08-25T10:43:11;4.87;;;4.40;;
50012;SDS011;35901;48.694;9.476;2022-08-25T10:45:57;4.32;;;3.92;;
50012;SDS011;35901;48.694;9.476;2022-08-25T10:51:35;3.85;;;3.55;;
50012;SDS011;35901;48.694;9.476;2022-08-25T10:54:24;4.45;;;3.92;;
50012;SDS011;35901;48.694;9.476;2022-08-25T10:57:03;3.60;;;3.30;;
50012;SDS011;35901;48.694;9.476;2022-08-25T11:07:45;3.65;;;3.35;;
50012;SDS011;35901;48.694;9.476;2022-08-25T11:10:15;3.45;;;3.25;;
50012;SDS011;35901;48.694;9.476;2022-08-25T11:12:54;3.72;;;3.42;;
50012;SDS011;35901;48.694;9.476;2022-08-25T11:15:27;3.90;;;3.60;;
50012;SDS011;35901;48.694;9.476;2022-08-25T11:18:04;3.80;;;3.50;;
50012;SDS011;35901;48.694;9.476;2022-08-25T11:20:39;3.83;;;3.50;;
50012;SDS011;35901;48.694;9.476;2022-08-25T11:23:11;4.30;;;3.90;;
50012;SDS011;35901;48.694;9.476;2022-08-25T11:25:49;3.85;;;3.55;;
50012;SDS011;35901;48.694;9.476;2022-08-25T11:28:34;3.88;;;3.55;;
50012;SDS011;35901;48.694;9.476;2022-08-25T11:31:07;4.00;;;3.70;;
50012;SDS011;35901;48.694;9.476;2022-08-25T11:33:34;3.60;;;3.30;;
50012;SDS011;35901;48.694;9.476;2022-08-25T11:41:36;3.85;;;3.53;;
50012;SDS011;35901;48.694;9.476;2022-08-25T11:47:16;3.50;;;3.30;;
50012;SDS011;35901;48.694;9.476;2022-08-25T11:50:00;3.70;;;3.40;;
50012;SDS011;35901;48.694;9.476;2022-08-25T11:55:03;3.60;;;3.33;;
50012;SDS011;35901;48.694;9.476;2022-08-25T11:57:38;3.72;;;3.40;;
50012;SDS011;35901;48.694;9.476;2022-08-25T12:02:57;3.40;;;3.20;;
50012;SDS011;35901;48.694;9.476;2022-08-25T12:07:58;3.40;;;3.20;;
50012;SDS011;35901;48.694;9.476;2022-08-25T12:21:47;3.42;;;3.22;;
50012;SDS011;35901;48.694;9.476;2022-08-25T12:24:14;3.58;;;3.30;;
50012;SDS011;35901;48.694;9.476;2022-08-25T12:27:00;3.97;;;3.67;;
50012;SDS011;35901;48.694;9.476;2022-08-25T12:29:38;3.70;;;3.40;;
50012;SDS011;35901;48.694;9.476;2022-08-25T12:45:51;3.70;;;3.40;;
50012;SDS011;35901;48.694;9.476;2022-08-25T12:53:38;3.38;;;3.08;;
50012;SDS011;35901;48.694;9.476;2022-08-25T12:56:09;3.88;;;3.10;;
50012;SDS011;35901;48.694;9.476;2022-08-25T13:12:50;3.30;;;3.10;;
50012;SDS011;35901;48.694;9.476;2022-08-25T13:15:34;4.30;;;3.33;;
50012;SDS011;35901;48.694;9.476;2022-08-25T13:18:23;3.42;;;3.13;;
50012;SDS011;35901;48.694;9.476;2022-08-25T13:21:01;4.13;;;3.75;;
50012;SDS011;35901;48.694;9.476;2022-08-25T13:23:43;3.50;;;3.20;;
50012;SDS011;35901;48.694;9.476;2022-08-25T13:26:14;3.95;;;3.47;;
50012;SDS011;35901;48.694;9.476;2022-08-25T13:29:13;3.70;;;3.40;;
50012;SDS011;35901;48.694;9.476;2022-08-25T13:31:53;3.40;;;3.20;;
50012;SDS011;35901;48.694;9.476;2022-08-25T13:34:28;3.88;;;3.38;;
50012;SDS011;35901;48.694;9.476;2022-08-25T13:36:56;3.63;;;3.42;;
50012;SDS011;35901;48.694;9.476;2022-08-25T13:40:05;3.42;;;3.10;;
50012;SDS011;35901;48.694;9.476;2022-08-25T13:42:36;3.33;;;3.13;;
50012;SDS011;35901;48.694;9.476;2022-08-25T13:45:06;3.88;;;3.58;;
50012;SDS011;35901;48.694;9.476;2022-08-25T13:47:36;3.53;;;3.33;;
50012;SDS011;35901;48.694;9.476;2022-08-25T13:50:20;3.80;;;3.50;;
50012;SDS011;35901;48.694;9.476;2022-08-25T13:58:27;3.75;;;3.45;;
50012;SDS011;35901;48.694;9.476;2022-08-25T14:01:02;4.45;;;3.30;;
50012;SDS011;35901;48.694;9.476;2022-08-25T14:03:36;3.60;;;3.30;;
50012;SDS011;35901;48.694;9.476;2022-08-25T14:14:09;4.18;;;3.20;;
50012;SDS011;35901;48.694;9.476;2022-08-25T14:16:59;3.72;;;3.30;;
50012;SDS011;35901;48.694;9.476;2022-08-25T14:19:29;3.15;;;2.90;;
50012;SDS011;35901;48.694;9.476;2022-08-25T14:21:55;3.30;;;3.10;;
50012;SDS011;35901;48.694;9.476;2022-08-25T14:24:26;4.45;;;3.03;;
50012;SDS011;35901;48.694;9.476;2022-08-25T14:26:57;2.97;;;2.78;;
50012;SDS011;35901;48.694;9.476;2022-08-25T14:29:23;3.63;;;3.33;;
50012;SDS011;35901;48.694;9.476;2022-08-25T14:31:49;3.35;;;3.05;;
50012;SDS011;35901;48.694;9.476;2022-08-25T14:36:43;3.30;;;3.10;;
50012;SDS011;35901;48.694;9.476;2022-08-25T14:39:10;6.72;;;3.55;;
50012;SDS011;35901;48.694;9.476;2022-08-25T14:41:37;4.78;;;3.40;;
50012;SDS011;35901;48.694;9.476;2022-08-25T14:44:08;6.97;;;3.40;;
50012;SDS011;35901;48.694;9.476;2022-08-25T14:46:36;3.78;;;3.10;;
50012;SDS011;35901;48.694;9.476;2022-08-25T14:49:09;3.78;;;3.22;;
50012;SDS011;35901;48.694;9.476;2022-08-25T14:51:37;3.50;;;3.20;;
50012;SDS011;35901;48.694;9.476;2022-08-25T14:54:05;3.75;;;3.17;;
50012;SDS011;35901;48.694;9.476;2022-08-25T14:56:34;3.85;;;3.50;;
50012;SDS011;35901;48.694;9.476;2022-08-25T14:58:59;3.25;;;3.05;;
50012;SDS011;35901;48.694;9.476;2022-08-25T15:01:26;3.60;;;3.30;;
50012;SDS011;35901;48.694;9.476;2022-08-25T15:03:55;3.40;;;3.10;;
50012;SDS011;35901;48.694;9.476;2022-08-25T15:06:41;3.57;;;3.07;;
50012;SDS011;35901;48.694;9.476;2022-08-25T15:09:08;5.38;;;3.38;;
50012;SDS011;35901;48.694;9.476;2022-08-25T15:11:37;2.95;;;2.75;;
50012;SDS011;35901;48.694;9.476;2022-08-25T15:14:05;3.63;;;2.95;;
50012;SDS011;35901;48.694;9.476;2022-08-25T15:16:32;5.50;;;3.10;;
50012;SDS011;35901;48.694;9.476;2022-08-25T15:19:03;3.35;;;3.15;;
50012;SDS011;35901;48.694;9.476;2022-08-25T15:21:31;3.70;;;3.40;;
50012;SDS011;35901;48.694;9.476;2022-08-25T15:23:57;3.83;;;3.10;;
50012;SDS011;35901;48.694;9.476;2022-08-25T15:26:24;3.35;;;2.90;;
50012;SDS011;35901;48.694;9.476;2022-08-25T15:28:50;3.60;;;2.73;;
50012;SDS011;35901;48.694;9.476;2022-08-25T15:31:16;3.40;;;3.10;;
50012;SDS011;35901;48.694;9.476;2022-08-25T15:33:44;3.40;;;3.17;;
50012;SDS011;35901;48.694;9.476;2022-08-25T15:36:12;3.77;;;3.30;;
50012;SDS011;35901;48.694;9.476;2022-08-25T15:38:40;3.30;;;3.10;;
50012;SDS011;35901;48.694;9.476;2022-08-25T15:41:10;3.37;;;3.07;;
50012;SDS011;35901;48.694;9.476;2022-08-25T15:43:37;3.33;;;3.10;;
50012;SDS011;35901;48.694;9.476;2022-08-25T15:46:02;3.40;;;3.10;;
50012;SDS011;35901;48.694;9.476;2022-08-25T15:48:29;3.27;;;3.00;;
50012;SDS011;35901;48.694;9.476;2022-08-25T15:50:56;3.87;;;3.30;;
50012;SDS011;35901;48.694;9.476;2022-08-25T15:53:24;3.50;;;3.20;;
50012;SDS011;35901;48.694;9.476;2022-08-25T15:55:52;3.30;;;3.10;;
50012;SDS011;35901;48.694;9.476;2022-08-25T15:58:18;2.95;;;2.75;;
50012;SDS011;35901;48.694;9.476;2022-08-25T16:00:45;3.00;;;2.80;;
50012;SDS011;35901;48.694;9.476;2022-08-25T16:03:11;3.45;;;3.25;;
50012;SDS011;35901;48.694;9.476;2022-08-25T16:05:38;3.40;;;3.10;;
50012;SDS011;35901;48.694;9.476;2022-08-25T16:08:05;2.92;;;2.72;;
50012;SDS011;35901;48.694;9.476;2022-08-25T16:10:32;3.15;;;2.95;;
50012;SDS011;35901;48.694;9.476;2022-08-25T16:12:58;3.15;;;2.95;;
50012;SDS011;35901;48.694;9.476;2022-08-25T16:15:24;3.60;;;3.15;;
50012;SDS011;35901;48.694;9.476;2022-08-25T16:17:49;3.58;;;2.95;;
50012;SDS011;35901;48.694;9.476;2022-08-25T16:20:15;3.03;;;2.78;;
50012;SDS011;35901;48.694;9.476;2022-08-25T16:22:41;3.30;;;3.08;;
50012;SDS011;35901;48.694;9.476;2022-08-25T16:25:08;3.40;;;3.10;;
50012;SDS011;35901;48.694;9.476;2022-08-25T16:27:34;4.07;;;2.90;;
50012;SDS011;35901;48.694;9.476;2022-08-25T16:30:00;3.13;;;2.75;;
50012;SDS011;35901;48.694;9.476;2022-08-25T16:32:26;3.08;;;2.88;;
50012;SDS011;35901;48.694;9.476;2022-08-25T16:34:52;3.20;;;3.00;;
50012;SDS011;35901;48.694;9.476;2022-08-25T16:37:18;3.35;;;3.00;;
50012;SDS011;35901;48.694;9.476;2022-08-25T16:39:44;3.30;;;3.08;;
50012;SDS011;35901;48.694;9.476;2022-08-25T16:42:10;3.28;;;2.80;;
50012;SDS011;35901;48.694;9.476;2022-08-25T16:44:36;3.67;;;3.07;;
50012;SDS011;35901;48.694;9.476;2022-08-25T16:47:04;3.10;;;2.80;;
50012;SDS011;35901;48.694;9.476;2022-08-25T16:49:29;3.10;;;2.90;;
50012;SDS011;35901;48.694;9.476;2022-08-25T16:51:55;3.30;;;3.03;;
50012;SDS011;35901;48.694;9.476;2022-08-25T16:54:21;3.08;;;2.78;;
50012;SDS011;35901;48.694;9.476;2022-08-25T16:57:05;3.20;;;3.00;;
50012;SDS011;35901;48.694;9.476;2022-08-25T16:59:31;3.10;;;2.90;;
50012;SDS011;35901;48.694;9.476;2022-08-25T17:01:56;3.67;;;3.00;;
50012;SDS011;35901;48.694;9.476;2022-08-25T17:04:22;2.97;;;2.77;;
50012;SDS011;35901;48.694;9.476;2022-08-25T17:06:48;5.28;;;3.03;;
50012;SDS011;35901;48.694;9.476;2022-08-25T17:09:13;4.23;;;2.80;;
50012;SDS011;35901;48.694;9.476;2022-08-25T17:11:43;3.20;;;2.90;;